sensor_id;sensor_type;location;lat;lon;timestamp;P1;durP1;ratioP1;P2;durP2;ratioP2
4313;SDS011;2170;48.794;9.182;2023-04-23T00:01:17;3.80;;;3.50;;
4313;SDS011;2170;48.794;9.182;2023-04-23T00:03:49;4.80;;;3.53;;
4313;SDS011;2170;48.794;9.182;2023-04-23T00:06:37;5.73;;;3.47;;
4313;SDS011;2170;48.794;9.182;2023-04-23T00:09:12;6.40;;;3.40;;
4313;SDS011;2170;48.794;9.182;2023-04-23T00:11:56;4.70;;;3.43;;
4313;SDS011;2170;48.794;9.182;2023-04-23T00:14:25;3.60;;;3.30;;
4313;SDS011;2170;48.794;9.182;2023-04-23T00:17:07;6.70;;;3.30;;
4313;SDS011;2170;48.794;9.182;2023-04-23T00:20:06;3.43;;;3.13;;
4313;SDS011;2170;48.794;9.182;2023-04-23T00:22:25;2.80;;;2.60;;
4313;SDS011;2170;48.794;9.182;2023-04-23T00:24:56;3.37;;;2.70;;
4313;SDS011;2170;48.794;9.182;2023-04-23T00:27:25;3.17;;;2.77;;
4313;SDS011;2170;48.794;9.182;2023-04-23T00:29:53;3.60;;;3.20;;
4313;SDS011;2170;48.794;9.182;2023-04-23T00:32:26;3.20;;;2.80;;
4313;SDS011;2170;48.794;9.182;2023-04-23T00:35:00;3.53;;;2.93;;
4313;SDS011;2170;48.794;9.182;2023-04-23T00:37:30;4.17;;;2.50;;
4313;SDS011;2170;48.794;9.182;2023-04-23T00:39:59;3.27;;;2.70;;
4313;SDS011;2170;48.794;9.182;2023-04-23T00:42:30;3.40;;;2.97;;
4313;SDS011;2170;48.794;9.182;2023-04-23T00:44:58;2.77;;;2.50;;
4313;SDS011;2170;48.794;9.182;2023-04-23T00:47:31;4.23;;;3.00;;
4313;SDS011;2170;48.794;9.182;2023-04-23T00:49:59;2.60;;;2.40;;
4313;SDS011;2170;48.794;9.182;2023-04-23T00:52:31;5.23;;;3.43;;
4313;SDS011;2170;48.794;9.182;2023-04-23T00:55:00;2.73;;;2.53;;
4313;SDS011;2170;48.794;9.182;2023-04-23T00:57:30;3.53;;;3.23;;
4313;SDS011;2170;48.794;9.182;2023-04-23T01:00:04;2.63;;;2.37;;
4313;SDS011;2170;48.794;9.182;2023-04-23T01:02:42;3.03;;;2.80;;
4313;SDS011;2170;48.794;9.182;2023-04-23T01:05:19;3.53;;;3.23;;
4313;SDS011;2170;48.794;9.182;2023-04-23T01:07:52;3.20;;;3.00;;
4313;SDS011;2170;48.794;9.182;2023-04-23T01:10:23;4.07;;;2.90;;
4313;SDS011;2170;48.794;9.182;2023-04-23T01:12:51;3.40;;;3.10;;
4313;SDS011;2170;48.794;9.182;2023-04-23T01:15:19;5.07;;;2.90;;
4313;SDS011;2170;48.794;9.182;2023-04-23T01:17:57;2.70;;;2.50;;
4313;SDS011;2170;48.794;9.182;2023-04-23T01:20:35;3.50;;;3.20;;
4313;SDS011;2170;48.794;9.182;2023-04-23T01:23:09;3.30;;;3.10;;
4313;SDS011;2170;48.794;9.182;2023-04-23T01:25:37;3.23;;;3.00;;
4313;SDS011;2170;48.794;9.182;2023-04-23T01:28:08;3.53;;;3.13;;
4313;SDS011;2170;48.794;9.182;2023-04-23T01:30:41;3.60;;;3.40;;
4313;SDS011;2170;48.794;9.182;2023-04-23T01:33:09;5.10;;;2.80;;
4313;SDS011;2170;48.794;9.182;2023-04-23T01:35:48;3.50;;;3.20;;
4313;SDS011;2170;48.794;9.182;2023-04-23T01:38:31;5.20;;;2.57;;
4313;SDS011;2170;48.794;9.182;2023-04-23T01:41:02;3.77;;;3.40;;
4313;SDS011;2170;48.794;9.182;2023-04-23T01:43:31;3.43;;;3.20;;
4313;SDS011;2170;48.794;9.182;2023-04-23T01:46:07;3.50;;;3.20;;
4313;SDS011;2170;48.794;9.182;2023-04-23T01:48:38;3.23;;;3.00;;
4313;SDS011;2170;48.794;9.182;2023-04-23T01:51:09;3.77;;;3.43;;
4313;SDS011;2170;48.794;9.182;2023-04-23T01:53:40;3.40;;;3.10;;
4313;SDS011;2170;48.794;9.182;2023-04-23T01:56:11;3.10;;;2.90;;
4313;SDS011;2170;48.794;9.182;2023-04-23T01:58:40;3.00;;;2.80;;
4313;SDS011;2170;48.794;9.182;2023-04-23T02:01:14;4.10;;;3.30;;
4313;SDS011;2170;48.794;9.182;2023-04-23T02:03:44;2.50;;;2.40;;
4313;SDS011;2170;48.794;9.182;2023-04-23T02:06:28;2.63;;;2.50;;
4313;SDS011;2170;48.794;9.182;2023-04-23T02:08:59;3.00;;;2.77;;
4313;SDS011;2170;48.794;9.182;2023-04-23T02:11:28;2.70;;;2.50;;
4313;SDS011;2170;48.794;9.182;2023-04-23T02:14:00;3.37;;;2.40;;
4313;SDS011;2170;48.794;9.182;2023-04-23T02:16:29;3.73;;;2.70;;
4313;SDS011;2170;48.794;9.182;2023-04-23T02:18:57;3.90;;;2.60;;
4313;SDS011;2170;48.794;9.182;2023-04-23T02:21:25;3.50;;;2.80;;
4313;SDS011;2170;48.794;9.182;2023-04-23T02:23:56;2.40;;;2.30;;
4313;SDS011;2170;48.794;9.182;2023-04-23T02:26:25;2.90;;;2.57;;
4313;SDS011;2170;48.794;9.182;2023-04-23T02:29:03;3.37;;;2.83;;
4313;SDS011;2170;48.794;9.182;2023-04-23T02:31:31;2.63;;;2.43;;
4313;SDS011;2170;48.794;9.182;2023-04-23T02:34:07;2.80;;;2.60;;
4313;SDS011;2170;48.794;9.182;2023-04-23T02:36:45;3.03;;;2.70;;
4313;SDS011;2170;48.794;9.182;2023-04-23T02:39:15;2.93;;;2.73;;
4313;SDS011;2170;48.794;9.182;2023-04-23T02:41:46;4.00;;;2.97;;
4313;SDS011;2170;48.794;9.182;2023-04-23T02:44:18;2.87;;;2.63;;
4313;SDS011;2170;48.794;9.182;2023-04-23T02:46:49;3.73;;;2.80;;
4313;SDS011;2170;48.794;9.182;2023-04-23T02:49:17;2.53;;;2.43;;
4313;SDS011;2170;48.794;9.182;2023-04-23T02:51:46;2.70;;;2.50;;
4313;SDS011;2170;48.794;9.182;2023-04-23T02:54:25;3.43;;;3.10;;
4313;SDS011;2170;48.794;9.182;2023-04-23T02:57:01;3.60;;;3.20;;
4313;SDS011;2170;48.794;9.182;2023-04-23T02:59:41;3.37;;;3.10;;
4313;SDS011;2170;48.794;9.182;2023-04-23T03:02:20;3.30;;;3.10;;
4313;SDS011;2170;48.794;9.182;2023-04-23T03:04:53;3.23;;;2.80;;
4313;SDS011;2170;48.794;9.182;2023-04-23T03:07:22;3.00;;;2.80;;
4313;SDS011;2170;48.794;9.182;2023-04-23T03:10:03;3.37;;;3.07;;
4313;SDS011;2170;48.794;9.182;2023-04-23T03:12:34;2.50;;;2.30;;
4313;SDS011;2170;48.794;9.182;2023-04-23T03:15:07;3.60;;;2.80;;
4313;SDS011;2170;48.794;9.182;2023-04-23T03:17:36;3.10;;;2.50;;
4313;SDS011;2170;48.794;9.182;2023-04-23T03:20:09;3.50;;;3.20;;
4313;SDS011;2170;48.794;9.182;2023-04-23T03:22:41;3.10;;;2.90;;
4313;SDS011;2170;48.794;9.182;2023-04-23T03:25:10;2.90;;;2.70;;
4313;SDS011;2170;48.794;9.182;2023-04-23T03:27:40;4.67;;;2.77;;
4313;SDS011;2170;48.794;9.182;2023-04-23T03:30:09;4.30;;;2.60;;
4313;SDS011;2170;48.794;9.182;2023-04-23T03:32:37;4.33;;;2.60;;
4313;SDS011;2170;48.794;9.182;2023-04-23T03:35:08;3.07;;;2.87;;
4313;SDS011;2170;48.794;9.182;2023-04-23T03:37:39;2.87;;;2.67;;
4313;SDS011;2170;48.794;9.182;2023-04-23T03:40:11;4.53;;;3.13;;
4313;SDS011;2170;48.794;9.182;2023-04-23T03:42:46;2.50;;;2.40;;
4313;SDS011;2170;48.794;9.182;2023-04-23T03:45:19;2.70;;;2.50;;
4313;SDS011;2170;48.794;9.182;2023-04-23T03:47:47;2.93;;;2.63;;
4313;SDS011;2170;48.794;9.182;2023-04-23T03:50:15;3.10;;;2.90;;
4313;SDS011;2170;48.794;9.182;2023-04-23T03:52:42;2.93;;;2.73;;
4313;SDS011;2170;48.794;9.182;2023-04-23T03:55:18;3.53;;;3.23;;
4313;SDS011;2170;48.794;9.182;2023-04-23T03:57:51;3.60;;;3.30;;
4313;SDS011;2170;48.794;9.182;2023-04-23T04:00:21;2.80;;;2.60;;
4313;SDS011;2170;48.794;9.182;2023-04-23T04:02:51;2.70;;;2.60;;
4313;SDS011;2170;48.794;9.182;2023-04-23T04:05:19;3.17;;;2.87;;
4313;SDS011;2170;48.794;9.182;2023-04-23T04:07:47;4.47;;;3.90;;
4313;SDS011;2170;48.794;9.182;2023-04-23T04:10:14;2.83;;;2.60;;
4313;SDS011;2170;48.794;9.182;2023-04-23T04:12:41;2.87;;;2.50;;
4313;SDS011;2170;48.794;9.182;2023-04-23T04:15:14;2.67;;;2.57;;
4313;SDS011;2170;48.794;9.182;2023-04-23T04:17:47;3.33;;;3.03;;
4313;SDS011;2170;48.794;9.182;2023-04-23T04:20:24;2.40;;;2.20;;
4313;SDS011;2170;48.794;9.182;2023-04-23T04:22:56;2.40;;;2.20;;
4313;SDS011;2170;48.794;9.182;2023-04-23T04:25:27;2.80;;;2.60;;
4313;SDS011;2170;48.794;9.182;2023-04-23T04:27:57;2.63;;;2.53;;
4313;SDS011;2170;48.794;9.182;2023-04-23T04:30:40;2.23;;;2.13;;
4313;SDS011;2170;48.794;9.182;2023-04-23T04:33:10;2.50;;;2.30;;
4313;SDS011;2170;48.794;9.182;2023-04-23T04:35:42;2.43;;;2.33;;
4313;SDS011;2170;48.794;9.182;2023-04-23T04:38:31;2.30;;;2.20;;
4313;SDS011;2170;48.794;9.182;2023-04-23T04:41:06;2.80;;;2.57;;
4313;SDS011;2170;48.794;9.182;2023-04-23T04:43:37;2.80;;;2.40;;
4313;SDS011;2170;48.794;9.182;2023-04-23T04:46:07;2.30;;;2.20;;
4313;SDS011;2170;48.794;9.182;2023-04-23T04:48:37;2.70;;;2.10;;
4313;SDS011;2170;48.794;9.182;2023-04-23T04:51:06;2.20;;;2.10;;
4313;SDS011;2170;48.794;9.182;2023-04-23T04:53:57;2.37;;;2.27;;
4313;SDS011;2170;48.794;9.182;2023-04-23T04:56:31;2.30;;;2.20;;
4313;SDS011;2170;48.794;9.182;2023-04-23T04:59:05;2.53;;;2.43;;
4313;SDS011;2170;48.794;9.182;2023-04-23T05:01:34;2.20;;;2.00;;
4313;SDS011;2170;48.794;9.182;2023-04-23T05:04:06;2.83;;;2.60;;
4313;SDS011;2170;48.794;9.182;2023-04-23T05:06:35;2.70;;;2.40;;
4313;SDS011;2170;48.794;9.182;2023-04-23T05:09:03;2.47;;;2.37;;
4313;SDS011;2170;48.794;9.182;2023-04-23T05:11:38;2.37;;;2.27;;
4313;SDS011;2170;48.794;9.182;2023-04-23T05:14:05;2.90;;;2.70;;
4313;SDS011;2170;48.794;9.182;2023-04-23T05:16:37;2.70;;;2.47;;
4313;SDS011;2170;48.794;9.182;2023-04-23T05:19:06;3.50;;;3.10;;
4313;SDS011;2170;48.794;9.182;2023-04-23T05:21:33;2.70;;;2.60;;
4313;SDS011;2170;48.794;9.182;2023-04-23T05:24:01;2.40;;;2.20;;
4313;SDS011;2170;48.794;9.182;2023-04-23T05:26:30;2.40;;;2.30;;
4313;SDS011;2170;48.794;9.182;2023-04-23T05:29:00;2.80;;;2.60;;
4313;SDS011;2170;48.794;9.182;2023-04-23T05:31:29;2.90;;;2.57;;
4313;SDS011;2170;48.794;9.182;2023-04-23T05:33:58;2.23;;;2.00;;
4313;SDS011;2170;48.794;9.182;2023-04-23T05:36:26;3.03;;;2.40;;
4313;SDS011;2170;48.794;9.182;2023-04-23T05:38:55;2.20;;;2.10;;
4313;SDS011;2170;48.794;9.182;2023-04-23T05:41:23;2.40;;;2.30;;
4313;SDS011;2170;48.794;9.182;2023-04-23T05:43:54;2.23;;;2.13;;
4313;SDS011;2170;48.794;9.182;2023-04-23T05:46:25;2.40;;;2.30;;
4313;SDS011;2170;48.794;9.182;2023-04-23T05:48:53;2.30;;;2.20;;
4313;SDS011;2170;48.794;9.182;2023-04-23T05:51:28;2.47;;;2.27;;
4313;SDS011;2170;48.794;9.182;2023-04-23T05:53:59;2.70;;;2.17;;
4313;SDS011;2170;48.794;9.182;2023-04-23T05:56:33;2.43;;;2.27;;
4313;SDS011;2170;48.794;9.182;2023-04-23T05:59:08;2.00;;;1.90;;
4313;SDS011;2170;48.794;9.182;2023-04-23T06:01:42;1.70;;;1.60;;
4313;SDS011;2170;48.794;9.182;2023-04-23T06:04:10;2.00;;;1.90;;
4313;SDS011;2170;48.794;9.182;2023-04-23T06:06:42;1.73;;;1.63;;
4313;SDS011;2170;48.794;9.182;2023-04-23T06:09:20;2.20;;;2.10;;
4313;SDS011;2170;48.794;9.182;2023-04-23T06:11:50;1.63;;;1.53;;
4313;SDS011;2170;48.794;9.182;2023-04-23T06:14:19;3.20;;;3.00;;
4313;SDS011;2170;48.794;9.182;2023-04-23T06:16:48;2.30;;;2.20;;
4313;SDS011;2170;48.794;9.182;2023-04-23T06:19:17;2.20;;;2.03;;
4313;SDS011;2170;48.794;9.182;2023-04-23T06:21:53;2.77;;;2.57;;
4313;SDS011;2170;48.794;9.182;2023-04-23T06:24:23;1.67;;;1.57;;
4313;SDS011;2170;48.794;9.182;2023-04-23T06:26:54;1.93;;;1.83;;
4313;SDS011;2170;48.794;9.182;2023-04-23T06:29:31;1.47;;;1.47;;
4313;SDS011;2170;48.794;9.182;2023-04-23T06:32:03;1.70;;;1.70;;
4313;SDS011;2170;48.794;9.182;2023-04-23T06:34:47;2.00;;;1.90;;
4313;SDS011;2170;48.794;9.182;2023-04-23T06:37:22;1.93;;;1.67;;
4313;SDS011;2170;48.794;9.182;2023-04-23T06:40:04;1.90;;;1.80;;
4313;SDS011;2170;48.794;9.182;2023-04-23T06:42:38;3.30;;;2.50;;
4313;SDS011;2170;48.794;9.182;2023-04-23T06:45:06;1.40;;;1.40;;
4313;SDS011;2170;48.794;9.182;2023-04-23T06:47:38;1.67;;;1.57;;
4313;SDS011;2170;48.794;9.182;2023-04-23T06:50:06;1.30;;;1.30;;
4313;SDS011;2170;48.794;9.182;2023-04-23T06:52:42;1.70;;;1.60;;
4313;SDS011;2170;48.794;9.182;2023-04-23T06:55:13;1.30;;;1.30;;
4313;SDS011;2170;48.794;9.182;2023-04-23T06:57:43;2.23;;;2.13;;
4313;SDS011;2170;48.794;9.182;2023-04-23T07:00:11;1.40;;;1.40;;
4313;SDS011;2170;48.794;9.182;2023-04-23T07:02:39;1.40;;;1.30;;
4313;SDS011;2170;48.794;9.182;2023-04-23T07:05:07;1.43;;;1.40;;
4313;SDS011;2170;48.794;9.182;2023-04-23T07:07:36;1.27;;;1.27;;
4313;SDS011;2170;48.794;9.182;2023-04-23T07:10:07;2.27;;;1.70;;
4313;SDS011;2170;48.794;9.182;2023-04-23T07:12:35;4.27;;;3.97;;
4313;SDS011;2170;48.794;9.182;2023-04-23T07:15:07;1.50;;;1.40;;
4313;SDS011;2170;48.794;9.182;2023-04-23T07:17:41;1.67;;;1.30;;
4313;SDS011;2170;48.794;9.182;2023-04-23T07:20:11;1.20;;;1.20;;
4313;SDS011;2170;48.794;9.182;2023-04-23T07:22:45;1.30;;;1.20;;
4313;SDS011;2170;48.794;9.182;2023-04-23T07:25:15;1.10;;;1.10;;
4313;SDS011;2170;48.794;9.182;2023-04-23T07:27:46;1.40;;;1.30;;
4313;SDS011;2170;48.794;9.182;2023-04-23T07:30:25;1.80;;;1.70;;
4313;SDS011;2170;48.794;9.182;2023-04-23T07:32:55;1.77;;;1.67;;
4313;SDS011;2170;48.794;9.182;2023-04-23T07:35:24;8.53;;;7.07;;
4313;SDS011;2170;48.794;9.182;2023-04-23T07:37:52;1.83;;;1.73;;
4313;SDS011;2170;48.794;9.182;2023-04-23T07:40:26;1.73;;;1.63;;
4313;SDS011;2170;48.794;9.182;2023-04-23T07:42:54;1.27;;;1.27;;
4313;SDS011;2170;48.794;9.182;2023-04-23T07:45:23;1.30;;;1.20;;
4313;SDS011;2170;48.794;9.182;2023-04-23T07:47:59;1.20;;;1.20;;
4313;SDS011;2170;48.794;9.182;2023-04-23T07:50:27;1.03;;;1.03;;
4313;SDS011;2170;48.794;9.182;2023-04-23T07:53:01;2.20;;;1.50;;
4313;SDS011;2170;48.794;9.182;2023-04-23T07:55:40;1.10;;;1.10;;
4313;SDS011;2170;48.794;9.182;2023-04-23T07:58:12;1.27;;;1.27;;
4313;SDS011;2170;48.794;9.182;2023-04-23T08:00:40;1.27;;;1.27;;
4313;SDS011;2170;48.794;9.182;2023-04-23T08:03:13;1.93;;;1.83;;
4313;SDS011;2170;48.794;9.182;2023-04-23T08:05:46;4.17;;;1.90;;
4313;SDS011;2170;48.794;9.182;2023-04-23T08:08:14;1.70;;;1.60;;
4313;SDS011;2170;48.794;9.182;2023-04-23T08:10:47;1.43;;;1.33;;
4313;SDS011;2170;48.794;9.182;2023-04-23T08:13:14;1.33;;;1.33;;
4313;SDS011;2170;48.794;9.182;2023-04-23T08:15:42;1.90;;;1.80;;
4313;SDS011;2170;48.794;9.182;2023-04-23T08:18:10;2.23;;;1.90;;
4313;SDS011;2170;48.794;9.182;2023-04-23T08:20:43;1.50;;;1.50;;
4313;SDS011;2170;48.794;9.182;2023-04-23T08:23:13;1.20;;;1.20;;
4313;SDS011;2170;48.794;9.182;2023-04-23T08:25:41;2.30;;;1.57;;
4313;SDS011;2170;48.794;9.182;2023-04-23T08:28:10;1.60;;;1.50;;
4313;SDS011;2170;48.794;9.182;2023-04-23T08:30:38;1.73;;;1.63;;
4313;SDS011;2170;48.794;9.182;2023-04-23T08:33:10;1.97;;;1.87;;
4313;SDS011;2170;48.794;9.182;2023-04-23T08:36:22;1.70;;;1.60;;
4313;SDS011;2170;48.794;9.182;2023-04-23T08:38:41;1.87;;;1.77;;
4313;SDS011;2170;48.794;9.182;2023-04-23T08:41:13;1.57;;;1.50;;
4313;SDS011;2170;48.794;9.182;2023-04-23T08:43:44;1.60;;;1.50;;
4313;SDS011;2170;48.794;9.182;2023-04-23T08:46:13;2.23;;;2.13;;
4313;SDS011;2170;48.794;9.182;2023-04-23T08:48:40;3.30;;;3.00;;
4313;SDS011;2170;48.794;9.182;2023-04-23T08:51:09;1.90;;;1.50;;
4313;SDS011;2170;48.794;9.182;2023-04-23T08:53:39;4.60;;;1.80;;
4313;SDS011;2170;48.794;9.182;2023-04-23T08:56:14;1.40;;;1.40;;
4313;SDS011;2170;48.794;9.182;2023-04-23T08:58:49;1.80;;;1.70;;
4313;SDS011;2170;48.794;9.182;2023-04-23T09:01:20;1.40;;;1.40;;
4313;SDS011;2170;48.794;9.182;2023-04-23T09:03:59;2.00;;;1.60;;
4313;SDS011;2170;48.794;9.182;2023-04-23T09:06:27;1.70;;;1.60;;
4313;SDS011;2170;48.794;9.182;2023-04-23T09:08:56;2.13;;;1.90;;
4313;SDS011;2170;48.794;9.182;2023-04-23T09:11:34;1.20;;;1.20;;
4313;SDS011;2170;48.794;9.182;2023-04-23T09:14:14;1.70;;;1.60;;
4313;SDS011;2170;48.794;9.182;2023-04-23T09:16:52;1.93;;;1.83;;
4313;SDS011;2170;48.794;9.182;2023-04-23T09:19:21;2.00;;;1.90;;
4313;SDS011;2170;48.794;9.182;2023-04-23T09:21:52;1.93;;;1.83;;
4313;SDS011;2170;48.794;9.182;2023-04-23T09:24:29;2.67;;;1.70;;
4313;SDS011;2170;48.794;9.182;2023-04-23T09:26:59;1.47;;;1.47;;
4313;SDS011;2170;48.794;9.182;2023-04-23T09:29:29;1.70;;;1.60;;
4313;SDS011;2170;48.794;9.182;2023-04-23T09:32:04;1.30;;;1.30;;
4313;SDS011;2170;48.794;9.182;2023-04-23T09:34:49;1.67;;;1.57;;
4313;SDS011;2170;48.794;9.182;2023-04-23T09:37:25;2.00;;;1.83;;
4313;SDS011;2170;48.794;9.182;2023-04-23T09:39:52;2.00;;;1.90;;
4313;SDS011;2170;48.794;9.182;2023-04-23T09:42:27;2.20;;;2.00;;
4313;SDS011;2170;48.794;9.182;2023-04-23T09:44:56;2.03;;;1.87;;
4313;SDS011;2170;48.794;9.182;2023-04-23T09:47:31;1.20;;;1.20;;
4313;SDS011;2170;48.794;9.182;2023-04-23T09:49:59;1.50;;;1.40;;
4313;SDS011;2170;48.794;9.182;2023-04-23T09:52:38;2.40;;;1.30;;
4313;SDS011;2170;48.794;9.182;2023-04-23T09:55:08;1.67;;;1.33;;
4313;SDS011;2170;48.794;9.182;2023-04-23T09:57:40;1.70;;;1.60;;
4313;SDS011;2170;48.794;9.182;2023-04-23T10:00:14;1.20;;;1.17;;
4313;SDS011;2170;48.794;9.182;2023-04-23T10:02:50;1.10;;;1.10;;
4313;SDS011;2170;48.794;9.182;2023-04-23T10:05:20;1.83;;;1.13;;
4313;SDS011;2170;48.794;9.182;2023-04-23T10:08:01;2.50;;;1.57;;
4313;SDS011;2170;48.794;9.182;2023-04-23T10:10:31;2.27;;;1.10;;
4313;SDS011;2170;48.794;9.182;2023-04-23T10:13:00;1.37;;;1.27;;
4313;SDS011;2170;48.794;9.182;2023-04-23T10:15:32;1.23;;;1.20;;
4313;SDS011;2170;48.794;9.182;2023-04-23T10:18:03;2.53;;;1.20;;
4313;SDS011;2170;48.794;9.182;2023-04-23T10:20:32;3.20;;;1.17;;
4313;SDS011;2170;48.794;9.182;2023-04-23T10:23:04;1.23;;;1.10;;
4313;SDS011;2170;48.794;9.182;2023-04-23T10:25:33;0.97;;;0.97;;
4313;SDS011;2170;48.794;9.182;2023-04-23T10:28:02;1.60;;;1.10;;
4313;SDS011;2170;48.794;9.182;2023-04-23T10:30:33;1.33;;;1.23;;
4313;SDS011;2170;48.794;9.182;2023-04-23T10:33:03;1.10;;;1.10;;
4313;SDS011;2170;48.794;9.182;2023-04-23T10:35:31;1.60;;;1.10;;
4313;SDS011;2170;48.794;9.182;2023-04-23T10:38:00;1.00;;;1.00;;
4313;SDS011;2170;48.794;9.182;2023-04-23T10:40:29;1.37;;;0.90;;
4313;SDS011;2170;48.794;9.182;2023-04-23T10:42:59;1.07;;;1.07;;
4313;SDS011;2170;48.794;9.182;2023-04-23T10:45:30;1.00;;;1.00;;
4313;SDS011;2170;48.794;9.182;2023-04-23T10:48:02;1.10;;;1.10;;
4313;SDS011;2170;48.794;9.182;2023-04-23T10:50:33;2.90;;;1.20;;
4313;SDS011;2170;48.794;9.182;2023-04-23T10:53:04;0.93;;;0.93;;
4313;SDS011;2170;48.794;9.182;2023-04-23T10:55:45;1.60;;;1.40;;
4313;SDS011;2170;48.794;9.182;2023-04-23T10:58:18;1.20;;;1.10;;
4313;SDS011;2170;48.794;9.182;2023-04-23T11:00:48;0.90;;;0.90;;
4313;SDS011;2170;48.794;9.182;2023-04-23T11:03:35;0.93;;;0.93;;
4313;SDS011;2170;48.794;9.182;2023-04-23T11:06:07;1.10;;;1.10;;
4313;SDS011;2170;48.794;9.182;2023-04-23T11:11:16;0.90;;;0.90;;
4313;SDS011;2170;48.794;9.182;2023-04-23T11:13:49;1.80;;;1.70;;
4313;SDS011;2170;48.794;9.182;2023-04-23T11:16:20;4.03;;;3.77;;
4313;SDS011;2170;48.794;9.182;2023-04-23T11:18:59;1.43;;;0.97;;
4313;SDS011;2170;48.794;9.182;2023-04-23T11:24:15;1.10;;;1.10;;
4313;SDS011;2170;48.794;9.182;2023-04-23T11:26:43;0.83;;;0.83;;
4313;SDS011;2170;48.794;9.182;2023-04-23T11:29:14;1.33;;;1.00;;
4313;SDS011;2170;48.794;9.182;2023-04-23T11:31:47;1.17;;;1.00;;
4313;SDS011;2170;48.794;9.182;2023-04-23T11:34:16;0.87;;;0.87;;
4313;SDS011;2170;48.794;9.182;2023-04-23T11:36:44;1.17;;;1.17;;
4313;SDS011;2170;48.794;9.182;2023-04-23T11:39:13;1.17;;;1.00;;
4313;SDS011;2170;48.794;9.182;2023-04-23T11:41:43;3.20;;;1.00;;
4313;SDS011;2170;48.794;9.182;2023-04-23T11:44:14;1.13;;;1.13;;
4313;SDS011;2170;48.794;9.182;2023-04-23T11:46:41;1.27;;;0.97;;
4313;SDS011;2170;48.794;9.182;2023-04-23T11:49:09;1.37;;;1.07;;
4313;SDS011;2170;48.794;9.182;2023-04-23T11:51:41;0.77;;;0.77;;
4313;SDS011;2170;48.794;9.182;2023-04-23T11:54:10;1.23;;;0.83;;
4313;SDS011;2170;48.794;9.182;2023-04-23T11:56:38;0.90;;;0.87;;
4313;SDS011;2170;48.794;9.182;2023-04-23T11:59:06;1.50;;;1.40;;
4313;SDS011;2170;48.794;9.182;2023-04-23T12:01:45;1.17;;;0.80;;
4313;SDS011;2170;48.794;9.182;2023-04-23T12:04:13;0.90;;;0.90;;
4313;SDS011;2170;48.794;9.182;2023-04-23T12:06:44;1.10;;;1.10;;
4313;SDS011;2170;48.794;9.182;2023-04-23T12:09:12;0.80;;;0.80;;
4313;SDS011;2170;48.794;9.182;2023-04-23T12:11:40;1.40;;;1.30;;
4313;SDS011;2170;48.794;9.182;2023-04-23T12:14:11;0.80;;;0.80;;
4313;SDS011;2170;48.794;9.182;2023-04-23T12:16:54;1.03;;;1.03;;
4313;SDS011;2170;48.794;9.182;2023-04-23T12:19:26;1.17;;;0.87;;
4313;SDS011;2170;48.794;9.182;2023-04-23T12:21:57;1.40;;;1.30;;
4313;SDS011;2170;48.794;9.182;2023-04-23T12:24:28;0.83;;;0.83;;
4313;SDS011;2170;48.794;9.182;2023-04-23T12:26:58;0.93;;;0.93;;
4313;SDS011;2170;48.794;9.182;2023-04-23T12:29:28;1.07;;;1.03;;
4313;SDS011;2170;48.794;9.182;2023-04-23T12:31:56;0.87;;;0.87;;
4313;SDS011;2170;48.794;9.182;2023-04-23T12:34:24;1.13;;;1.10;;
4313;SDS011;2170;48.794;9.182;2023-04-23T12:36:53;1.90;;;1.27;;
4313;SDS011;2170;48.794;9.182;2023-04-23T12:39:23;1.47;;;1.37;;
4313;SDS011;2170;48.794;9.182;2023-04-23T12:41:52;1.00;;;1.00;;
4313;SDS011;2170;48.794;9.182;2023-04-23T12:44:21;1.10;;;0.97;;
4313;SDS011;2170;48.794;9.182;2023-04-23T12:46:49;1.20;;;1.10;;
4313;SDS011;2170;48.794;9.182;2023-04-23T12:49:17;1.00;;;1.00;;
4313;SDS011;2170;48.794;9.182;2023-04-23T12:51:48;1.33;;;1.20;;
4313;SDS011;2170;48.794;9.182;2023-04-23T12:54:16;0.90;;;0.90;;
4313;SDS011;2170;48.794;9.182;2023-04-23T12:56:48;1.10;;;1.10;;
4313;SDS011;2170;48.794;9.182;2023-04-23T12:59:16;1.13;;;1.03;;
4313;SDS011;2170;48.794;9.182;2023-04-23T13:01:43;1.13;;;1.03;;
4313;SDS011;2170;48.794;9.182;2023-04-23T13:04:10;1.70;;;1.10;;
4313;SDS011;2170;48.794;9.182;2023-04-23T13:06:38;1.00;;;1.00;;
4313;SDS011;2170;48.794;9.182;2023-04-23T13:09:05;1.10;;;1.10;;
4313;SDS011;2170;48.794;9.182;2023-04-23T13:11:36;0.80;;;0.80;;
4313;SDS011;2170;48.794;9.182;2023-04-23T13:14:06;1.10;;;1.10;;
4313;SDS011;2170;48.794;9.182;2023-04-23T13:16:40;1.43;;;1.20;;
4313;SDS011;2170;48.794;9.182;2023-04-23T13:19:07;1.33;;;1.27;;
4313;SDS011;2170;48.794;9.182;2023-04-23T13:21:37;1.63;;;1.53;;
4313;SDS011;2170;48.794;9.182;2023-04-23T13:24:05;1.27;;;0.90;;
4313;SDS011;2170;48.794;9.182;2023-04-23T13:26:35;1.10;;;1.10;;
4313;SDS011;2170;48.794;9.182;2023-04-23T13:29:10;0.73;;;0.73;;
4313;SDS011;2170;48.794;9.182;2023-04-23T13:31:37;0.80;;;0.80;;
4313;SDS011;2170;48.794;9.182;2023-04-23T13:34:06;0.93;;;0.80;;
4313;SDS011;2170;48.794;9.182;2023-04-23T13:36:34;0.80;;;0.80;;
4313;SDS011;2170;48.794;9.182;2023-04-23T13:39:11;1.13;;;1.00;;
4313;SDS011;2170;48.794;9.182;2023-04-23T13:41:59;1.03;;;0.80;;
4313;SDS011;2170;48.794;9.182;2023-04-23T13:47:24;1.57;;;1.00;;
4313;SDS011;2170;48.794;9.182;2023-04-23T13:49:57;1.43;;;0.80;;
4313;SDS011;2170;48.794;9.182;2023-04-23T13:52:27;0.90;;;0.83;;
4313;SDS011;2170;48.794;9.182;2023-04-23T13:54:56;1.60;;;0.67;;
4313;SDS011;2170;48.794;9.182;2023-04-23T13:57:26;1.33;;;1.03;;
4313;SDS011;2170;48.794;9.182;2023-04-23T13:59:55;0.73;;;0.73;;
4313;SDS011;2170;48.794;9.182;2023-04-23T14:02:26;0.97;;;0.90;;
4313;SDS011;2170;48.794;9.182;2023-04-23T14:04:54;2.70;;;0.80;;
4313;SDS011;2170;48.794;9.182;2023-04-23T14:07:22;0.97;;;0.97;;
4313;SDS011;2170;48.794;9.182;2023-04-23T14:09:51;1.33;;;0.97;;
4313;SDS011;2170;48.794;9.182;2023-04-23T14:12:19;1.37;;;0.90;;
4313;SDS011;2170;48.794;9.182;2023-04-23T14:14:48;0.97;;;0.90;;
4313;SDS011;2170;48.794;9.182;2023-04-23T14:17:16;1.20;;;1.10;;
4313;SDS011;2170;48.794;9.182;2023-04-23T14:19:47;1.60;;;0.93;;
4313;SDS011;2170;48.794;9.182;2023-04-23T14:22:14;0.93;;;0.90;;
4313;SDS011;2170;48.794;9.182;2023-04-23T14:24:48;2.23;;;1.17;;
4313;SDS011;2170;48.794;9.182;2023-04-23T14:27:19;1.07;;;0.80;;
4313;SDS011;2170;48.794;9.182;2023-04-23T14:29:56;0.87;;;0.87;;
4313;SDS011;2170;48.794;9.182;2023-04-23T14:32:26;1.33;;;0.80;;
4313;SDS011;2170;48.794;9.182;2023-04-23T14:34:59;0.93;;;0.90;;
4313;SDS011;2170;48.794;9.182;2023-04-23T14:37:27;1.90;;;0.90;;
4313;SDS011;2170;48.794;9.182;2023-04-23T14:39:55;1.00;;;0.90;;
4313;SDS011;2170;48.794;9.182;2023-04-23T14:42:25;1.30;;;1.13;;
4313;SDS011;2170;48.794;9.182;2023-04-23T14:47:24;1.30;;;1.20;;
4313;SDS011;2170;48.794;9.182;2023-04-23T14:49:52;4.43;;;1.30;;
4313;SDS011;2170;48.794;9.182;2023-04-23T14:52:26;1.53;;;0.80;;
4313;SDS011;2170;48.794;9.182;2023-04-23T14:54:55;1.40;;;0.97;;
4313;SDS011;2170;48.794;9.182;2023-04-23T14:57:23;2.30;;;1.00;;
4313;SDS011;2170;48.794;9.182;2023-04-23T14:59:51;1.80;;;1.07;;
4313;SDS011;2170;48.794;9.182;2023-04-23T15:02:19;0.77;;;0.77;;
4313;SDS011;2170;48.794;9.182;2023-04-23T15:04:46;1.17;;;1.07;;
4313;SDS011;2170;48.794;9.182;2023-04-23T15:07:14;1.00;;;0.90;;
4313;SDS011;2170;48.794;9.182;2023-04-23T15:09:44;0.80;;;0.80;;
4313;SDS011;2170;48.794;9.182;2023-04-23T15:12:24;1.27;;;1.17;;
4313;SDS011;2170;48.794;9.182;2023-04-23T15:15:03;1.43;;;1.20;;
4313;SDS011;2170;48.794;9.182;2023-04-23T15:17:32;2.17;;;1.20;;
4313;SDS011;2170;48.794;9.182;2023-04-23T15:20:00;2.27;;;1.43;;
4313;SDS011;2170;48.794;9.182;2023-04-23T15:22:28;1.13;;;1.10;;
4313;SDS011;2170;48.794;9.182;2023-04-23T15:24:57;2.13;;;1.13;;
4313;SDS011;2170;48.794;9.182;2023-04-23T15:27:28;1.30;;;1.20;;
4313;SDS011;2170;48.794;9.182;2023-04-23T15:29:56;1.60;;;1.30;;
4313;SDS011;2170;48.794;9.182;2023-04-23T15:32:24;1.43;;;1.00;;
4313;SDS011;2170;48.794;9.182;2023-04-23T15:34:52;3.90;;;1.30;;
4313;SDS011;2170;48.794;9.182;2023-04-23T15:37:20;1.60;;;1.30;;
4313;SDS011;2170;48.794;9.182;2023-04-23T15:39:56;1.17;;;1.00;;
4313;SDS011;2170;48.794;9.182;2023-04-23T15:42:34;0.90;;;0.90;;
4313;SDS011;2170;48.794;9.182;2023-04-23T15:45:05;2.60;;;1.10;;
4313;SDS011;2170;48.794;9.182;2023-04-23T15:47:35;1.00;;;1.00;;
4313;SDS011;2170;48.794;9.182;2023-04-23T15:50:03;1.40;;;0.90;;
4313;SDS011;2170;48.794;9.182;2023-04-23T15:52:31;1.37;;;1.33;;